createdAt,value
2023-03-11T00:03:02.619Z,94196.06
2023-03-11T00:06:06.262Z,94205.69
2023-03-11T00:09:10.239Z,94200.16
2023-03-11T00:12:13.962Z,94201.63
2023-03-11T00:15:16.980Z,94210.13
2023-03-11T00:18:20.572Z,94198.06
2023-03-11T00:21:24.375Z,94203.34
2023-03-11T00:24:27.629Z,94203.09
2023-03-11T00:27:31.281Z,94190.72
2023-03-11T00:30:35.246Z,94189.47
2023-03-11T00:33:38.754Z,94201.53
2023-03-11T00:36:42.566Z,94218.41
2023-03-11T00:39:46.204Z,94217.69
2023-03-11T00:42:49.906Z,94224.25
2023-03-11T00:45:54.018Z,94237.00
2023-03-11T00:48:58.092Z,94231.50
2023-03-11T00:52:01.806Z,94217.00
2023-03-11T00:55:06.891Z,94224.66
2023-03-11T00:58:13.364Z,94217.56
2023-03-11T01:01:25.839Z,94206.84
2023-03-11T01:04:29.721Z,94204.03
2023-03-11T01:07:34.337Z,94205.47
2023-03-11T01:10:40.243Z,94207.59
2023-03-11T01:13:43.622Z,94211.41
2023-03-11T01:16:47.860Z,94211.66
2023-03-11T01:19:52.257Z,94202.16
2023-03-11T01:22:56.540Z,94200.75
2023-03-11T01:26:00.391Z,94206.41
2023-03-11T01:29:04.782Z,94216.13
2023-03-11T01:32:08.822Z,94224.09
2023-03-11T01:35:15.512Z,94228.91
2023-03-11T01:38:19.480Z,94215.53
2023-03-11T01:41:23.997Z,94221.03
2023-03-11T01:44:27.422Z,94244.22
2023-03-11T01:47:40.132Z,94237.88
2023-03-11T01:50:50.473Z,94248.94
2023-03-11T01:53:56.829Z,94248.03
2023-03-11T01:57:05.939Z,94250.22
2023-03-11T02:00:13.407Z,94251.50
2023-03-11T02:03:28.311Z,94255.59
2023-03-11T02:06:33.609Z,94250.09
2023-03-11T02:09:37.159Z,94262.47
2023-03-11T02:12:42.674Z,94255.47
2023-03-11T02:15:47.458Z,94262.22
2023-03-11T02:18:51.701Z,94273.72
2023-03-11T02:21:55.989Z,94260.50
2023-03-11T02:25:15.299Z,94271.00
2023-03-11T02:28:21.444Z,94269.16
2023-03-11T02:31:26.660Z,94270.50
2023-03-11T02:34:33.886Z,94263.94
2023-03-11T02:37:37.628Z,94265.81
2023-03-11T02:40:50.421Z,94258.97
2023-03-11T02:43:56.701Z,94270.28
2023-03-11T02:47:02.358Z,94273.19
2023-03-11T02:50:10.136Z,94267.50
2023-03-11T02:53:14.487Z,94265.63
2023-03-11T02:56:19.502Z,94284.47
2023-03-11T02:59:24.353Z,94282.00
2023-03-11T03:02:28.880Z,94270.03
2023-03-11T03:05:32.064Z,94270.69
2023-03-11T03:08:37.138Z,94271.41
2023-03-11T03:11:40.359Z,94260.25
2023-03-11T03:14:44.589Z,94250.44
2023-03-11T03:17:48.561Z,94263.72
2023-03-11T03:20:53.460Z,94270.75
2023-03-11T03:23:57.233Z,94258.97
2023-03-11T03:27:01.352Z,94266.63
2023-03-11T03:30:06.845Z,94251.81
2023-03-11T03:33:11.686Z,94255.13
2023-03-11T03:36:16.945Z,94251.09
2023-03-11T03:39:27.027Z,94247.56
2023-03-11T03:42:32.538Z,94239.00
2023-03-11T03:45:36.819Z,94231.53
2023-03-11T03:48:40.119Z,94254.13
2023-03-11T03:51:44.944Z,94249.84
2023-03-11T03:54:57.477Z,94241.47
2023-03-11T03:58:01.733Z,94253.31
2023-03-11T04:01:11.037Z,94265.19
2023-03-11T04:04:16.290Z,94261.38
2023-03-11T04:07:20.227Z,94265.50
2023-03-11T04:10:23.917Z,94256.00
2023-03-11T04:13:27.739Z,94252.59
2023-03-11T04:16:32.792Z,94258.94
2023-03-11T04:19:41.330Z,94255.16
2023-03-11T04:22:45.864Z,94243.22
2023-03-11T04:25:49.785Z,94258.69
2023-03-11T04:28:55.314Z,94244.34
2023-03-11T04:32:00.457Z,94259.69
2023-03-11T04:35:06.554Z,94259.88
2023-03-11T04:38:10.436Z,94265.38
2023-03-11T04:41:14.710Z,94252.56
2023-03-11T04:44:20.457Z,94262.38
2023-03-11T04:47:26.233Z,94255.66
2023-03-11T04:50:29.277Z,94263.16
2023-03-11T04:53:33.491Z,94260.50
2023-03-11T04:56:36.668Z,94234.47
2023-03-11T04:59:42.017Z,94233.56
2023-03-11T05:02:47.067Z,94224.53
2023-03-11T05:05:51.427Z,94224.31
2023-03-11T05:08:57.208Z,94234.19
2023-03-11T05:12:02.393Z,94217.84
2023-03-11T05:15:09.280Z,94222.22
2023-03-11T05:18:13.980Z,94215.59
2023-03-11T05:21:18.798Z,94200.22
2023-03-11T05:24:22.684Z,94211.66
2023-03-11T05:27:27.233Z,94213.66
2023-03-11T05:30:33.057Z,94202.69
2023-03-11T05:33:37.209Z,94193.50
2023-03-11T05:36:44.071Z,94202.38
2023-03-11T05:39:49.425Z,94184.75
2023-03-11T05:42:53.081Z,94196.75
2023-03-11T05:45:57.161Z,94189.75
2023-03-11T05:49:01.667Z,94208.59
2023-03-11T05:52:06.103Z,94199.00
2023-03-11T05:55:12.802Z,94189.84
2023-03-11T05:58:19.951Z,94192.78
2023-03-11T06:01:24.666Z,94178.41
2023-03-11T06:04:29.322Z,94172.75
2023-03-11T06:07:36.274Z,94174.50
2023-03-11T06:10:43.612Z,94174.81
2023-03-11T06:13:47.541Z,94177.41
2023-03-11T06:16:51.597Z,94174.63
2023-03-11T06:19:56.587Z,94175.47
2023-03-11T06:23:00.771Z,94153.72
2023-03-11T06:26:06.449Z,94176.91
2023-03-11T06:29:16.191Z,94168.31
2023-03-11T06:32:21.368Z,94167.06
2023-03-11T06:35:25.563Z,94168.16
2023-03-11T06:38:29.540Z,94150.06
2023-03-11T06:41:37.055Z,94169.97
2023-03-11T06:44:42.308Z,94148.34
2023-03-11T06:47:46.785Z,94155.28
2023-03-11T06:50:58.392Z,94170.06
2023-03-11T06:54:03.224Z,94155.97
2023-03-11T06:57:09.790Z,94138.25
2023-03-11T07:00:15.644Z,94141.19
2023-03-11T07:03:24.644Z,94154.94
2023-03-11T07:06:29.161Z,94153.88
2023-03-11T07:10:01.055Z,94156.97
2023-03-11T07:13:04.782Z,94175.69
2023-03-11T07:16:13.186Z,94157.91
2023-03-11T07:19:17.044Z,94162.44
2023-03-11T07:22:22.214Z,94173.81
2023-03-11T07:25:25.931Z,94177.25
2023-03-11T07:28:31.106Z,94175.41
2023-03-11T07:31:36.553Z,94182.28
2023-03-11T07:34:40.625Z,94167.09
2023-03-11T07:37:43.769Z,94165.88
2023-03-11T07:40:46.826Z,94199.59
2023-03-11T07:43:49.823Z,94184.00
2023-03-11T07:46:53.571Z,94180.38
2023-03-11T07:49:57.430Z,94170.75
2023-03-11T07:53:00.788Z,94191.19
2023-03-11T07:56:05.298Z,94189.09
2023-03-11T07:59:08.589Z,94199.75
2023-03-11T08:02:12.544Z,94196.13
2023-03-11T08:05:16.726Z,94193.22
2023-03-11T08:08:20.114Z,94193.16
2023-03-11T08:11:25.249Z,94212.22
2023-03-11T08:14:28.670Z,94198.22
2023-03-11T08:17:32.585Z,94205.09
2023-03-11T08:20:38.963Z,94210.25
2023-03-11T08:23:43.791Z,94199.94
2023-03-11T08:26:46.904Z,94205.28
2023-03-11T08:29:50.876Z,94205.38
2023-03-11T08:32:55.229Z,94199.47
2023-03-11T08:35:59.400Z,94209.19
2023-03-11T08:39:03.453Z,94200.31
2023-03-11T08:42:07.216Z,94200.44
2023-03-11T08:45:11.310Z,94215.59
2023-03-11T08:48:14.597Z,94206.25
2023-03-11T08:51:18.235Z,94207.03
2023-03-11T08:54:22.589Z,94206.53
2023-03-11T08:57:26.472Z,94210.19
2023-03-11T09:00:30.073Z,94223.31
2023-03-11T09:03:35.856Z,94231.75
2023-03-11T09:06:43.095Z,94225.03
2023-03-11T09:09:46.208Z,94221.28
2023-03-11T09:12:50.052Z,94213.53
2023-03-11T09:15:54.372Z,94231.47
2023-03-11T09:19:00.774Z,94224.59
2023-03-11T09:22:04.907Z,94228.56
2023-03-11T09:25:09.014Z,94232.50
2023-03-11T09:28:12.595Z,94234.81
2023-03-11T09:31:17.321Z,94224.44
2023-03-11T09:34:21.662Z,94221.00
2023-03-11T09:37:25.416Z,94223.28
2023-03-11T09:40:46.955Z,94220.47
2023-03-11T09:44:05.382Z,94233.69
2023-03-11T09:47:23.420Z,94232.75
2023-03-11T09:50:46.650Z,94228.81
2023-03-11T09:54:01.118Z,94221.59
2023-03-11T09:57:05.092Z,94231.59
2023-03-11T10:00:15.645Z,94227.72
2023-03-11T10:03:33.187Z,94233.63
2023-03-11T10:06:37.230Z,94231.72
2023-03-11T10:09:49.098Z,94245.09
2023-03-11T10:13:20.485Z,94236.81
2023-03-11T10:16:34.940Z,94231.88
2023-03-11T10:19:56.554Z,94237.13
2023-03-11T10:23:18.277Z,94234.81
2023-03-11T10:26:30.484Z,94239.56
2023-03-11T10:29:40.028Z,94237.97
2023-03-11T10:32:49.794Z,94245.19
2023-03-11T10:35:57.782Z,94239.34
2023-03-11T10:39:02.947Z,94242.38
2023-03-11T10:42:11.125Z,94247.84
2023-03-11T10:45:15.525Z,94244.41
2023-03-11T10:48:20.733Z,94263.13
2023-03-11T10:51:32.130Z,94258.94
2023-03-11T10:54:40.238Z,94265.69
2023-03-11T10:57:44.768Z,94260.00
2023-03-11T11:00:59.928Z,94265.97
2023-03-11T11:04:03.277Z,94273.31
2023-03-11T11:07:34.584Z,94266.94
2023-03-11T11:10:38.527Z,94273.78
2023-03-11T11:13:56.347Z,94276.59
2023-03-11T11:16:59.446Z,94284.34
2023-03-11T11:20:14.457Z,94278.28
2023-03-11T11:23:35.443Z,94288.00
2023-03-11T11:26:38.631Z,94283.59
2023-03-11T11:29:42.196Z,94290.97
2023-03-11T11:32:45.794Z,94293.06
2023-03-11T11:35:59.872Z,94292.97
2023-03-11T11:39:06.873Z,94299.25
2023-03-11T11:42:12.628Z,94301.34
2023-03-11T11:45:27.845Z,94300.72
2023-03-11T11:48:42.120Z,94299.66
2023-03-11T11:52:07.258Z,94299.84
2023-03-11T11:55:25.251Z,94313.72
2023-03-11T11:58:29.198Z,94318.47
2023-03-11T12:01:50.518Z,94321.09
2023-03-11T12:04:53.511Z,94338.09
2023-03-11T12:08:09.401Z,94332.50
2023-03-11T12:11:50.571Z,94342.50
2023-03-11T12:15:15.781Z,94353.94
2023-03-11T12:18:46.271Z,94348.19
2023-03-11T12:22:11.627Z,94362.88
2023-03-11T12:25:28.266Z,94355.13
2023-03-11T12:28:55.746Z,94358.00
2023-03-11T12:32:02.102Z,94362.50
2023-03-11T12:35:20.755Z,94355.13
2023-03-11T12:38:47.441Z,94370.66
2023-03-11T12:42:18.215Z,94365.97
2023-03-11T12:45:49.703Z,94358.69
2023-03-11T12:49:12.743Z,94365.56
2023-03-11T12:52:22.951Z,94370.53
2023-03-11T12:55:32.232Z,94365.75
2023-03-11T12:59:06.962Z,94370.03
2023-03-11T13:02:10.682Z,94385.09
2023-03-11T13:05:20.780Z,94383.47
2023-03-11T13:08:35.445Z,94394.53
2023-03-11T13:11:44.535Z,94383.97
2023-03-11T13:14:48.820Z,94394.63
2023-03-11T13:18:14.379Z,94391.59
2023-03-11T13:21:32.574Z,94392.31
2023-03-11T13:24:36.915Z,94383.84
2023-03-11T13:27:44.216Z,94393.75
2023-03-11T13:31:13.858Z,94386.91
2023-03-11T13:34:23.488Z,94383.63
2023-03-11T13:38:05.417Z,94376.31
2023-03-11T13:41:21.927Z,94375.66
2023-03-11T13:44:36.591Z,94378.72
2023-03-11T13:47:47.004Z,94375.69
2023-03-11T13:51:43.575Z,94384.16
2023-03-11T13:54:50.433Z,94381.09
2023-03-11T13:57:57.041Z,94380.22
2023-03-11T14:01:16.934Z,94385.56
2023-03-11T14:04:41.583Z,94386.06
2023-03-11T14:07:47.456Z,94383.91
2023-03-11T14:11:02.290Z,94378.75
2023-03-11T14:14:43.990Z,94389.38
2023-03-11T14:17:48.757Z,94393.38
2023-03-11T14:20:53.276Z,94391.50
2023-03-11T14:23:57.545Z,94392.88
2023-03-11T14:27:05.513Z,94391.72
2023-03-11T14:30:19.103Z,94398.34
2023-03-11T14:33:23.923Z,94390.53
2023-03-11T14:36:27.276Z,94387.75
2023-03-11T14:39:36.405Z,94402.09
2023-03-11T14:42:42.261Z,94397.84
2023-03-11T14:45:45.580Z,94396.94
2023-03-11T14:48:50.022Z,94400.66
2023-03-11T14:52:01.921Z,94405.38
2023-03-11T14:55:15.145Z,94403.25
2023-03-11T14:58:29.630Z,94398.78
2023-03-11T15:01:41.568Z,94393.59
2023-03-11T15:04:45.827Z,94391.25
2023-03-11T15:07:50.740Z,94384.66
2023-03-11T15:11:07.607Z,94395.47
2023-03-11T15:14:21.203Z,94388.19
2023-03-11T15:17:36.503Z,94395.94
2023-03-11T15:20:43.488Z,94384.91
2023-03-11T15:23:57.299Z,94386.75
2023-03-11T15:27:05.904Z,94383.69
2023-03-11T15:30:26.802Z,94384.19
2023-03-11T15:33:34.572Z,94386.97
2023-03-11T15:36:44.961Z,94383.22
2023-03-11T15:39:51.793Z,94371.91
2023-03-11T15:43:14.150Z,94378.53
2023-03-11T15:46:18.037Z,94370.53
2023-03-11T15:49:21.594Z,94383.47
2023-03-11T15:52:24.819Z,94388.34
2023-03-11T15:55:29.364Z,94397.03
2023-03-11T15:58:32.740Z,94390.88
2023-03-11T16:01:37.224Z,94393.22
2023-03-11T16:04:40.409Z,94396.25
2023-03-11T16:07:43.627Z,94397.47
2023-03-11T16:10:46.779Z,94380.06
2023-03-11T16:13:50.608Z,94394.38
2023-03-11T16:16:53.561Z,94387.09
2023-03-11T16:19:56.956Z,94391.50
2023-03-11T16:23:02.252Z,94387.28
2023-03-11T16:26:06.698Z,94383.31
2023-03-11T16:29:19.011Z,94387.06
2023-03-11T16:32:23.620Z,94383.31
2023-03-11T16:35:28.153Z,94379.03
2023-03-11T16:42:27.877Z,94378.06
2023-03-11T16:45:31.610Z,94381.56
2023-03-11T16:48:35.490Z,94376.81
2023-03-11T16:51:39.333Z,94383.63
2023-03-11T16:54:42.426Z,94393.97
2023-03-11T16:57:45.660Z,94385.69
2023-03-11T17:00:48.859Z,94386.75
2023-03-11T17:03:52.657Z,94390.88
2023-03-11T17:06:56.274Z,94396.78
2023-03-11T17:10:00.592Z,94390.72
2023-03-11T17:13:03.662Z,94386.75
2023-03-11T17:16:07.368Z,94384.38
2023-03-11T17:19:10.440Z,94384.31
2023-03-11T17:22:15.204Z,94385.41
2023-03-11T17:25:18.539Z,94379.50
2023-03-11T17:28:22.031Z,94368.31
2023-03-11T17:31:25.261Z,94377.72
2023-03-11T17:34:29.280Z,94362.47
2023-03-11T17:37:32.478Z,94366.25
2023-03-11T17:40:36.474Z,94360.81
2023-03-11T17:43:40.205Z,94361.97
2023-03-11T17:46:44.327Z,94359.16
2023-03-11T17:49:49.211Z,94360.59
2023-03-11T17:52:52.210Z,94355.91
2023-03-11T17:55:55.142Z,94366.34
2023-03-11T17:59:01.909Z,94358.47
2023-03-11T18:02:05.005Z,94356.34
2023-03-11T18:05:09.801Z,94362.81
2023-03-11T18:08:13.587Z,94356.16
2023-03-11T18:11:19.399Z,94359.25
2023-03-11T18:14:22.408Z,94356.97
2023-03-11T18:17:25.783Z,94354.00
2023-03-11T18:20:28.848Z,94360.97
2023-03-11T18:23:34.056Z,94353.13
2023-03-11T18:26:37.179Z,94349.53
2023-03-11T18:29:40.261Z,94362.97
2023-03-11T18:32:43.529Z,94352.22
2023-03-11T18:35:47.090Z,94359.59
2023-03-11T18:38:52.692Z,94347.50
2023-03-11T18:41:55.684Z,94342.22
2023-03-11T18:44:58.773Z,94333.63
2023-03-11T18:48:01.894Z,94335.50
2023-03-11T18:51:07.599Z,94323.56
2023-03-11T18:54:11.588Z,94318.34
2023-03-11T18:57:14.507Z,94327.50
2023-03-11T19:00:22.880Z,94315.97
2023-03-11T19:03:25.954Z,94315.41
2023-03-11T19:06:30.391Z,94311.97
2023-03-11T19:09:33.783Z,94308.56
2023-03-11T19:12:38.967Z,94320.69
2023-03-11T19:15:42.696Z,94293.91
2023-03-11T19:18:47.545Z,94290.22
2023-03-11T19:21:51.244Z,94287.22
2023-03-11T19:24:54.992Z,94284.13
2023-03-11T19:27:58.699Z,94280.31
2023-03-11T19:31:02.744Z,94270.16
2023-03-11T19:34:06.205Z,94279.59
2023-03-11T19:37:10.665Z,94280.56
2023-03-11T19:40:14.438Z,94272.34
2023-03-11T19:43:18.435Z,94275.88
2023-03-11T19:46:22.732Z,94266.03
2023-03-11T19:49:25.878Z,94265.50
2023-03-11T19:52:29.014Z,94259.41
2023-03-11T19:55:32.416Z,94259.63
2023-03-11T19:58:36.376Z,94255.78
2023-03-11T20:01:39.813Z,94249.47
2023-03-11T20:04:43.738Z,94254.88
2023-03-11T20:07:47.246Z,94247.03
2023-03-11T20:10:52.337Z,94244.00
2023-03-11T20:13:56.962Z,94247.13
2023-03-11T20:17:00.040Z,94241.00
2023-03-11T20:20:03.073Z,94242.84
2023-03-11T20:23:06.749Z,94232.78
2023-03-11T20:26:14.017Z,94224.81
2023-03-11T20:29:17.251Z,94232.00
2023-03-11T20:32:20.698Z,94219.09
2023-03-11T20:35:24.017Z,94216.47
2023-03-11T20:38:27.978Z,94226.19
2023-03-11T20:41:36.235Z,94219.59
2023-03-11T20:44:39.569Z,94218.44
2023-03-11T20:47:44.413Z,94215.16
2023-03-11T20:50:48.486Z,94213.16
2023-03-11T20:53:52.505Z,94214.13
2023-03-11T20:56:55.903Z,94213.88
2023-03-11T20:59:58.864Z,94209.94
2023-03-11T21:03:02.033Z,94210.09
2023-03-11T21:06:05.228Z,94205.75
2023-03-11T21:09:14.104Z,94205.75
2023-03-11T21:12:17.918Z,94196.66
2023-03-11T21:15:21.411Z,94195.09
2023-03-11T21:18:24.561Z,94193.47
2023-03-11T21:21:28.272Z,94199.09
2023-03-11T21:24:32.088Z,94201.78
2023-03-11T21:27:35.276Z,94188.88
2023-03-11T21:30:38.522Z,94185.16
2023-03-11T21:33:42.900Z,94188.50
2023-03-11T21:36:45.992Z,94175.41
2023-03-11T21:39:49.672Z,94173.53
2023-03-11T21:42:52.806Z,94172.13
2023-03-11T21:45:57.004Z,94173.53
2023-03-11T21:49:01.221Z,94164.50
2023-03-11T21:52:04.713Z,94167.38
2023-03-11T21:55:07.829Z,94164.59
2023-03-11T21:58:10.894Z,94161.13
2023-03-11T22:01:15.315Z,94155.97
2023-03-11T22:04:18.867Z,94158.69
2023-03-11T22:07:22.084Z,94157.97
2023-03-11T22:10:25.600Z,94162.28
2023-03-11T22:13:28.795Z,94158.69
2023-03-11T22:16:32.060Z,94158.41
2023-03-11T22:19:35.141Z,94158.56
2023-03-11T22:22:38.698Z,94154.91
2023-03-11T22:25:42.290Z,94150.53
2023-03-11T22:28:45.327Z,94151.59
2023-03-11T22:31:49.090Z,94146.66
2023-03-11T22:34:52.840Z,94151.34
2023-03-11T22:37:55.772Z,94145.31
2023-03-11T22:41:00.948Z,94137.00
2023-03-11T22:44:04.184Z,94134.75
2023-03-11T22:47:08.323Z,94125.56
2023-03-11T22:50:11.777Z,94119.44
2023-03-11T22:53:16.031Z,94118.44
2023-03-11T22:56:20.152Z,94115.59
2023-03-11T22:59:24.211Z,94120.00
2023-03-11T23:02:28.589Z,94101.06
2023-03-11T23:05:32.600Z,94112.84
2023-03-11T23:08:36.933Z,94120.66
2023-03-11T23:11:40.725Z,94113.28
2023-03-11T23:14:46.761Z,94113.28
2023-03-11T23:17:50.764Z,94110.88
2023-03-11T23:20:53.717Z,94102.00
2023-03-11T23:23:57.538Z,94097.19
2023-03-11T23:27:01.558Z,94097.44
2023-03-11T23:30:06.503Z,94100.50
2023-03-11T23:33:10.148Z,94095.00
2023-03-11T23:36:16.762Z,94088.25
2023-03-11T23:39:20.122Z,94085.28
2023-03-11T23:42:26.056Z,94085.53
2023-03-11T23:45:30.168Z,94081.44
2023-03-11T23:48:34.236Z,94072.84
2023-03-11T23:51:37.941Z,94060.84
2023-03-11T23:54:42.170Z,94067.63
2023-03-11T23:57:45.832Z,94062.28
